South Pittsburg, TN

12:06 PM CDT on April 24, 2017 (GMT -0500)
Richard City | | Change Station
Active Advisory: Flood Warning

Elev 630 ft 34.99 °N, 85.73 °W | Updated 5 seconds ago

Overcast
Overcast
74.3 °F
Feels Like 77 °F
N
5.0
Wind Variable Wind from WSW
Gusts 5.8 mph

Today
High -- | Low -- °F
--% Chance of Precip.
Yesterday
High -- | Low -- °F
Precip. -- in
Pressure 29.84 in
Visibility 10.0 miles
Clouds Overcast 1000 ft
Heat Index 77 °F
Dew Point 57 °F
Humidity 55%
Rainfall 0.00 in
Snow Depth Not available.
5:59 AM 7:22 PM
Waning Crescent, 5% visible
METAR KBGF 241655Z AUTO 34004KT 10SM OVC010 14/12 A2984 RMK
Pressure 29.84 in
Visibility 10.0 miles
Clouds Overcast 1000 ft
Heat Index 77 °F
Dew Point 57 °F
Humidity 55%
Rainfall 0.00 in
Snow Depth Not available.
5:59 AM 7:22 PM
Waning Crescent, 5% visible
METAR KBGF 241655Z AUTO 34004KT 10SM OVC010 14/12 A2984 RMK

Get Your Daily Forecast Email!

Thanks for signing up!

Be on the lookout for a verification email in your inbox.

You'll start receiving severe weather alerts in your inbox..

×

10-Day Weather Forecast

Almanac

Astronomy

Apr. 24, 2017 Rise Set
Actual Time
Civil Twilight
Nautical Twilight
Astronomical Twilight
Moon
Length of Visible Light
Length of Day
Tomorrow will be .
, % of the Moon is Illuminated

Today's Extremes

State Highs State Lows

Community

WunderPhotos

WunderBlog® & News

Nearby

Air Quality

  Air Quality AQ Index Pollutant
Not available.

Snow Depth

Station Depth Elevation

Earthquake Activity

City Distance Mag. Time & Date
Minimum magnitude displayed is 2.5.

Coastal Water Temperatures

Place Temperature

Stations

Nearby Weather Stations

Station Location Temp. Windchill Dew Point Humidity Wind Precip. Elev Updated Type
                   

Watches & Warnings

Flood Warning
Issued: 10:31 AM CDT Apr. 24, 2017 – National Weather Service

... Flood Warning extended until Tuesday evening... the Flood Warning
continues for
the Sequatchie river near Whitwell TN.
* Until Tuesday evening.
* At 10:15 am Monday the stage was 14.8 feet.
* Flood stage is 14.0 feet.
* Minor flooding is occurring and minor flooding is forecast.
* Forecast... the river will continue rising to near 15.0 feet by this
afternoon... but is then expected to begin falling. The river will
fall below flood stage by Tuesday afternoon.
* At 16.0 feet... flooding of agricultural land becomes more
extensive. Water reaches the bottom of the river gage house.


Lat... Lon 3510 8561 3555 8528 3552 8523 3507 8554